Terminal Aerodrome Forecast
Issued by NWS Shreveport, LA

Home | Current Version | Previous Version | Text Only | Print | Product List | Glossary On
Versions: 1 2 3 4 5 6 7 8 9 10 11 12 13
308
FTUS44 KSHV 081308 AAA
TAFSHV
TAF AMD
KSHV 081308Z 0813/0912 29009KT P6SM FEW120
     FM081500 30019G26KT P6SM SKC
     FM090000 29012KT P6SM SKC
     FM090300 29007KT P6SM SKC=

USA.gov is the U.S. government's official web portal to all federal, state and local government web resources and services.